sensor_id;sensor_type;location;lat;lon;timestamp;P1;durP1;ratioP1;P2;durP2;ratioP2
15155;SDS011;7678;50.058;8.306;2023-05-07T00:01:37;1.83;;;1.57;;
15155;SDS011;7678;50.058;8.306;2023-05-07T00:04:05;3.50;;;1.53;;
15155;SDS011;7678;50.058;8.306;2023-05-07T00:06:33;5.20;;;2.10;;
15155;SDS011;7678;50.058;8.306;2023-05-07T00:09:02;2.17;;;1.63;;
15155;SDS011;7678;50.058;8.306;2023-05-07T00:11:30;2.90;;;1.60;;
15155;SDS011;7678;50.058;8.306;2023-05-07T00:14:03;2.20;;;1.57;;
15155;SDS011;7678;50.058;8.306;2023-05-07T00:16:30;2.47;;;1.60;;
15155;SDS011;7678;50.058;8.306;2023-05-07T00:18:58;2.10;;;1.60;;
15155;SDS011;7678;50.058;8.306;2023-05-07T00:21:27;2.13;;;1.40;;
15155;SDS011;7678;50.058;8.306;2023-05-07T00:23:55;2.40;;;1.77;;
15155;SDS011;7678;50.058;8.306;2023-05-07T00:26:23;2.30;;;1.80;;
15155;SDS011;7678;50.058;8.306;2023-05-07T00:28:51;2.03;;;1.80;;
15155;SDS011;7678;50.058;8.306;2023-05-07T00:31:21;2.27;;;1.80;;
15155;SDS011;7678;50.058;8.306;2023-05-07T00:33:49;3.43;;;2.00;;
15155;SDS011;7678;50.058;8.306;2023-05-07T00:36:16;3.33;;;1.60;;
15155;SDS011;7678;50.058;8.306;2023-05-07T00:38:45;2.20;;;1.50;;
15155;SDS011;7678;50.058;8.306;2023-05-07T00:41:12;3.20;;;1.60;;
15155;SDS011;7678;50.058;8.306;2023-05-07T00:43:40;2.63;;;1.80;;
15155;SDS011;7678;50.058;8.306;2023-05-07T00:46:09;3.07;;;1.70;;
15155;SDS011;7678;50.058;8.306;2023-05-07T00:48:39;2.97;;;1.83;;
15155;SDS011;7678;50.058;8.306;2023-05-07T00:51:07;3.33;;;1.80;;
15155;SDS011;7678;50.058;8.306;2023-05-07T00:53:37;5.57;;;2.37;;
15155;SDS011;7678;50.058;8.306;2023-05-07T00:56:08;2.03;;;1.73;;
15155;SDS011;7678;50.058;8.306;2023-05-07T00:58:37;3.47;;;1.90;;
15155;SDS011;7678;50.058;8.306;2023-05-07T01:01:06;2.10;;;1.80;;
15155;SDS011;7678;50.058;8.306;2023-05-07T01:03:34;2.70;;;2.17;;
15155;SDS011;7678;50.058;8.306;2023-05-07T01:06:04;3.80;;;2.13;;
15155;SDS011;7678;50.058;8.306;2023-05-07T01:08:34;3.57;;;2.63;;
15155;SDS011;7678;50.058;8.306;2023-05-07T01:11:06;3.50;;;2.00;;
15155;SDS011;7678;50.058;8.306;2023-05-07T01:13:35;2.83;;;2.10;;
15155;SDS011;7678;50.058;8.306;2023-05-07T01:16:04;3.67;;;1.77;;
15155;SDS011;7678;50.058;8.306;2023-05-07T01:18:33;4.70;;;2.10;;
15155;SDS011;7678;50.058;8.306;2023-05-07T01:21:02;3.67;;;1.97;;
15155;SDS011;7678;50.058;8.306;2023-05-07T01:23:35;2.20;;;1.80;;
15155;SDS011;7678;50.058;8.306;2023-05-07T01:26:03;3.40;;;1.80;;
15155;SDS011;7678;50.058;8.306;2023-05-07T01:28:31;1.97;;;1.67;;
15155;SDS011;7678;50.058;8.306;2023-05-07T01:31:00;2.63;;;1.80;;
15155;SDS011;7678;50.058;8.306;2023-05-07T01:33:30;3.10;;;2.20;;
15155;SDS011;7678;50.058;8.306;2023-05-07T01:36:02;3.60;;;2.20;;
15155;SDS011;7678;50.058;8.306;2023-05-07T01:38:33;2.47;;;2.00;;
15155;SDS011;7678;50.058;8.306;2023-05-07T01:41:03;2.20;;;2.00;;
15155;SDS011;7678;50.058;8.306;2023-05-07T01:43:31;3.10;;;1.90;;
15155;SDS011;7678;50.058;8.306;2023-05-07T01:46:00;2.73;;;1.90;;
15155;SDS011;7678;50.058;8.306;2023-05-07T01:48:30;2.33;;;1.77;;
15155;SDS011;7678;50.058;8.306;2023-05-07T01:50:59;4.23;;;1.97;;
15155;SDS011;7678;50.058;8.306;2023-05-07T01:53:29;3.53;;;1.83;;
15155;SDS011;7678;50.058;8.306;2023-05-07T01:56:04;1.70;;;1.60;;
15155;SDS011;7678;50.058;8.306;2023-05-07T01:58:33;3.07;;;1.93;;
15155;SDS011;7678;50.058;8.306;2023-05-07T02:01:01;2.97;;;1.90;;
15155;SDS011;7678;50.058;8.306;2023-05-07T02:03:29;4.20;;;2.30;;
15155;SDS011;7678;50.058;8.306;2023-05-07T02:05:57;2.27;;;1.90;;
15155;SDS011;7678;50.058;8.306;2023-05-07T02:08:25;2.20;;;1.80;;
15155;SDS011;7678;50.058;8.306;2023-05-07T02:10:54;1.87;;;1.60;;
15155;SDS011;7678;50.058;8.306;2023-05-07T02:13:22;2.63;;;2.00;;
15155;SDS011;7678;50.058;8.306;2023-05-07T02:15:50;2.17;;;1.50;;
15155;SDS011;7678;50.058;8.306;2023-05-07T02:18:19;2.33;;;1.70;;
15155;SDS011;7678;50.058;8.306;2023-05-07T02:20:47;2.50;;;1.77;;
15155;SDS011;7678;50.058;8.306;2023-05-07T02:23:16;3.30;;;1.67;;
15155;SDS011;7678;50.058;8.306;2023-05-07T02:25:44;2.33;;;1.53;;
15155;SDS011;7678;50.058;8.306;2023-05-07T02:28:13;1.97;;;1.73;;
15155;SDS011;7678;50.058;8.306;2023-05-07T02:30:41;3.73;;;2.10;;
15155;SDS011;7678;50.058;8.306;2023-05-07T02:33:09;3.43;;;1.90;;
15155;SDS011;7678;50.058;8.306;2023-05-07T02:35:38;2.50;;;1.63;;
15155;SDS011;7678;50.058;8.306;2023-05-07T02:38:06;4.00;;;1.73;;
15155;SDS011;7678;50.058;8.306;2023-05-07T02:40:36;2.80;;;1.57;;
15155;SDS011;7678;50.058;8.306;2023-05-07T02:43:06;2.70;;;2.07;;
15155;SDS011;7678;50.058;8.306;2023-05-07T02:45:35;3.23;;;2.00;;
15155;SDS011;7678;50.058;8.306;2023-05-07T02:48:04;4.73;;;2.57;;
15155;SDS011;7678;50.058;8.306;2023-05-07T02:50:32;2.60;;;1.70;;
15155;SDS011;7678;50.058;8.306;2023-05-07T02:53:00;2.47;;;1.80;;
15155;SDS011;7678;50.058;8.306;2023-05-07T02:55:29;3.90;;;1.90;;
15155;SDS011;7678;50.058;8.306;2023-05-07T02:57:57;2.67;;;1.80;;
15155;SDS011;7678;50.058;8.306;2023-05-07T03:00:25;3.43;;;1.60;;
15155;SDS011;7678;50.058;8.306;2023-05-07T03:02:55;2.07;;;1.53;;
15155;SDS011;7678;50.058;8.306;2023-05-07T03:05:23;2.27;;;1.70;;
15155;SDS011;7678;50.058;8.306;2023-05-07T03:07:51;3.93;;;1.90;;
15155;SDS011;7678;50.058;8.306;2023-05-07T03:10:19;2.80;;;1.97;;
15155;SDS011;7678;50.058;8.306;2023-05-07T03:12:47;2.40;;;1.60;;
15155;SDS011;7678;50.058;8.306;2023-05-07T03:15:15;1.70;;;1.60;;
15155;SDS011;7678;50.058;8.306;2023-05-07T03:17:43;2.10;;;1.83;;
15155;SDS011;7678;50.058;8.306;2023-05-07T03:20:13;3.03;;;2.00;;
15155;SDS011;7678;50.058;8.306;2023-05-07T03:22:42;2.33;;;1.90;;
15155;SDS011;7678;50.058;8.306;2023-05-07T03:25:10;2.57;;;1.67;;
15155;SDS011;7678;50.058;8.306;2023-05-07T03:27:38;3.57;;;1.90;;
15155;SDS011;7678;50.058;8.306;2023-05-07T03:30:06;1.90;;;1.40;;
15155;SDS011;7678;50.058;8.306;2023-05-07T03:32:36;2.23;;;1.60;;
15155;SDS011;7678;50.058;8.306;2023-05-07T03:35:04;1.93;;;1.77;;
15155;SDS011;7678;50.058;8.306;2023-05-07T03:37:34;6.10;;;2.00;;
15155;SDS011;7678;50.058;8.306;2023-05-07T03:40:02;2.80;;;1.70;;
15155;SDS011;7678;50.058;8.306;2023-05-07T03:42:31;2.90;;;2.03;;
15155;SDS011;7678;50.058;8.306;2023-05-07T03:44:59;3.27;;;1.87;;
15155;SDS011;7678;50.058;8.306;2023-05-07T03:47:27;2.33;;;1.70;;
15155;SDS011;7678;50.058;8.306;2023-05-07T03:49:55;4.07;;;1.70;;
15155;SDS011;7678;50.058;8.306;2023-05-07T03:52:23;2.60;;;1.80;;
15155;SDS011;7678;50.058;8.306;2023-05-07T03:54:53;2.50;;;1.77;;
15155;SDS011;7678;50.058;8.306;2023-05-07T03:57:21;2.53;;;1.90;;
15155;SDS011;7678;50.058;8.306;2023-05-07T03:59:49;2.27;;;1.80;;
15155;SDS011;7678;50.058;8.306;2023-05-07T04:02:17;3.23;;;1.70;;
15155;SDS011;7678;50.058;8.306;2023-05-07T04:04:45;1.97;;;1.77;;
15155;SDS011;7678;50.058;8.306;2023-05-07T04:07:15;2.07;;;1.60;;
15155;SDS011;7678;50.058;8.306;2023-05-07T04:09:43;2.47;;;1.50;;
15155;SDS011;7678;50.058;8.306;2023-05-07T04:12:12;3.40;;;1.90;;
15155;SDS011;7678;50.058;8.306;2023-05-07T04:14:40;3.30;;;2.13;;
15155;SDS011;7678;50.058;8.306;2023-05-07T04:17:08;3.03;;;1.90;;
15155;SDS011;7678;50.058;8.306;2023-05-07T04:19:37;4.27;;;1.70;;
15155;SDS011;7678;50.058;8.306;2023-05-07T04:22:04;3.40;;;1.77;;
15155;SDS011;7678;50.058;8.306;2023-05-07T04:24:33;2.73;;;1.60;;
15155;SDS011;7678;50.058;8.306;2023-05-07T04:27:00;2.50;;;1.60;;
15155;SDS011;7678;50.058;8.306;2023-05-07T04:29:30;2.50;;;1.73;;
15155;SDS011;7678;50.058;8.306;2023-05-07T04:31:58;2.37;;;1.53;;
15155;SDS011;7678;50.058;8.306;2023-05-07T04:34:26;2.60;;;1.70;;
15155;SDS011;7678;50.058;8.306;2023-05-07T04:36:58;3.80;;;2.00;;
15155;SDS011;7678;50.058;8.306;2023-05-07T04:39:26;5.37;;;1.97;;
15155;SDS011;7678;50.058;8.306;2023-05-07T04:41:54;3.03;;;1.90;;
15155;SDS011;7678;50.058;8.306;2023-05-07T04:44:22;3.57;;;2.10;;
15155;SDS011;7678;50.058;8.306;2023-05-07T04:46:52;2.60;;;2.07;;
15155;SDS011;7678;50.058;8.306;2023-05-07T04:49:22;3.47;;;1.60;;
15155;SDS011;7678;50.058;8.306;2023-05-07T04:51:51;1.93;;;1.70;;
15155;SDS011;7678;50.058;8.306;2023-05-07T04:54:18;3.00;;;2.03;;
15155;SDS011;7678;50.058;8.306;2023-05-07T04:56:46;2.80;;;1.90;;
15155;SDS011;7678;50.058;8.306;2023-05-07T04:59:14;3.93;;;1.70;;
15155;SDS011;7678;50.058;8.306;2023-05-07T05:01:43;3.33;;;1.80;;
15155;SDS011;7678;50.058;8.306;2023-05-07T05:04:12;2.03;;;1.50;;
15155;SDS011;7678;50.058;8.306;2023-05-07T05:06:40;2.67;;;1.97;;
15155;SDS011;7678;50.058;8.306;2023-05-07T05:09:09;3.53;;;1.87;;
15155;SDS011;7678;50.058;8.306;2023-05-07T05:11:37;2.47;;;1.80;;
15155;SDS011;7678;50.058;8.306;2023-05-07T05:14:06;3.00;;;1.73;;
15155;SDS011;7678;50.058;8.306;2023-05-07T05:16:34;2.87;;;1.80;;
15155;SDS011;7678;50.058;8.306;2023-05-07T05:19:02;4.20;;;1.60;;
15155;SDS011;7678;50.058;8.306;2023-05-07T05:21:32;1.53;;;1.30;;
15155;SDS011;7678;50.058;8.306;2023-05-07T05:23:59;4.57;;;1.83;;
15155;SDS011;7678;50.058;8.306;2023-05-07T05:26:28;2.47;;;1.77;;
15155;SDS011;7678;50.058;8.306;2023-05-07T05:28:56;4.87;;;1.67;;
15155;SDS011;7678;50.058;8.306;2023-05-07T05:31:24;2.57;;;1.47;;
15155;SDS011;7678;50.058;8.306;2023-05-07T05:33:52;3.20;;;1.50;;
15155;SDS011;7678;50.058;8.306;2023-05-07T05:36:20;2.07;;;1.70;;
15155;SDS011;7678;50.058;8.306;2023-05-07T05:38:50;1.67;;;1.50;;
15155;SDS011;7678;50.058;8.306;2023-05-07T05:41:18;3.50;;;1.60;;
15155;SDS011;7678;50.058;8.306;2023-05-07T05:43:46;2.83;;;1.90;;
15155;SDS011;7678;50.058;8.306;2023-05-07T05:46:16;3.60;;;1.60;;
15155;SDS011;7678;50.058;8.306;2023-05-07T05:48:44;3.13;;;1.90;;
15155;SDS011;7678;50.058;8.306;2023-05-07T05:51:12;3.93;;;1.80;;
15155;SDS011;7678;50.058;8.306;2023-05-07T05:53:40;3.37;;;1.77;;
15155;SDS011;7678;50.058;8.306;2023-05-07T05:56:09;3.10;;;1.87;;
15155;SDS011;7678;50.058;8.306;2023-05-07T05:58:37;2.87;;;1.80;;
15155;SDS011;7678;50.058;8.306;2023-05-07T06:01:05;2.07;;;1.87;;
15155;SDS011;7678;50.058;8.306;2023-05-07T06:03:33;3.97;;;1.63;;
15155;SDS011;7678;50.058;8.306;2023-05-07T06:06:01;2.73;;;1.90;;
15155;SDS011;7678;50.058;8.306;2023-05-07T06:08:29;2.03;;;1.60;;
15155;SDS011;7678;50.058;8.306;2023-05-07T06:10:58;3.60;;;2.00;;
15155;SDS011;7678;50.058;8.306;2023-05-07T06:13:28;4.30;;;2.20;;
15155;SDS011;7678;50.058;8.306;2023-05-07T06:15:56;3.03;;;1.73;;
15155;SDS011;7678;50.058;8.306;2023-05-07T06:18:24;2.53;;;1.80;;
15155;SDS011;7678;50.058;8.306;2023-05-07T06:20:52;2.30;;;1.60;;
15155;SDS011;7678;50.058;8.306;2023-05-07T06:23:21;2.50;;;1.87;;
15155;SDS011;7678;50.058;8.306;2023-05-07T06:25:49;3.80;;;1.70;;
15155;SDS011;7678;50.058;8.306;2023-05-07T06:28:17;4.20;;;1.73;;
15155;SDS011;7678;50.058;8.306;2023-05-07T06:30:47;2.47;;;1.80;;
15155;SDS011;7678;50.058;8.306;2023-05-07T06:33:16;2.37;;;1.90;;
15155;SDS011;7678;50.058;8.306;2023-05-07T06:35:46;2.30;;;1.80;;
15155;SDS011;7678;50.058;8.306;2023-05-07T06:38:14;2.87;;;2.00;;
15155;SDS011;7678;50.058;8.306;2023-05-07T06:40:42;5.03;;;1.80;;
15155;SDS011;7678;50.058;8.306;2023-05-07T06:43:10;2.47;;;1.80;;
15155;SDS011;7678;50.058;8.306;2023-05-07T06:45:38;2.30;;;1.70;;
15155;SDS011;7678;50.058;8.306;2023-05-07T06:48:07;2.17;;;1.70;;
15155;SDS011;7678;50.058;8.306;2023-05-07T06:50:35;3.50;;;2.00;;
15155;SDS011;7678;50.058;8.306;2023-05-07T06:53:03;3.53;;;1.97;;
15155;SDS011;7678;50.058;8.306;2023-05-07T06:55:31;2.37;;;1.73;;
15155;SDS011;7678;50.058;8.306;2023-05-07T06:57:59;3.33;;;1.97;;
15155;SDS011;7678;50.058;8.306;2023-05-07T07:00:28;2.17;;;1.67;;
15155;SDS011;7678;50.058;8.306;2023-05-07T07:02:56;2.40;;;1.90;;
15155;SDS011;7678;50.058;8.306;2023-05-07T07:05:26;3.03;;;1.80;;
15155;SDS011;7678;50.058;8.306;2023-05-07T07:07:54;3.10;;;1.90;;
15155;SDS011;7678;50.058;8.306;2023-05-07T07:10:22;3.43;;;1.80;;
15155;SDS011;7678;50.058;8.306;2023-05-07T07:12:50;2.50;;;2.00;;
15155;SDS011;7678;50.058;8.306;2023-05-07T07:15:19;2.00;;;1.80;;
15155;SDS011;7678;50.058;8.306;2023-05-07T07:17:48;2.10;;;1.73;;
15155;SDS011;7678;50.058;8.306;2023-05-07T07:20:16;5.43;;;1.97;;
15155;SDS011;7678;50.058;8.306;2023-05-07T07:22:46;2.40;;;2.00;;
15155;SDS011;7678;50.058;8.306;2023-05-07T07:25:14;3.27;;;2.47;;
15155;SDS011;7678;50.058;8.306;2023-05-07T07:27:42;1.97;;;1.77;;
15155;SDS011;7678;50.058;8.306;2023-05-07T07:30:13;2.63;;;2.00;;
15155;SDS011;7678;50.058;8.306;2023-05-07T07:32:41;2.87;;;2.00;;
15155;SDS011;7678;50.058;8.306;2023-05-07T07:35:10;2.10;;;1.90;;
15155;SDS011;7678;50.058;8.306;2023-05-07T07:37:47;2.00;;;1.80;;
15155;SDS011;7678;50.058;8.306;2023-05-07T07:40:16;2.93;;;1.93;;
15155;SDS011;7678;50.058;8.306;2023-05-07T07:42:45;2.40;;;2.00;;
15155;SDS011;7678;50.058;8.306;2023-05-07T07:45:16;2.50;;;1.90;;
15155;SDS011;7678;50.058;8.306;2023-05-07T07:47:53;2.27;;;2.07;;
15155;SDS011;7678;50.058;8.306;2023-05-07T07:50:21;2.93;;;2.10;;
15155;SDS011;7678;50.058;8.306;2023-05-07T07:53:13;2.90;;;1.97;;
15155;SDS011;7678;50.058;8.306;2023-05-07T07:55:45;2.77;;;2.10;;
15155;SDS011;7678;50.058;8.306;2023-05-07T07:58:16;2.30;;;2.10;;
15155;SDS011;7678;50.058;8.306;2023-05-07T08:00:49;2.47;;;2.27;;
15155;SDS011;7678;50.058;8.306;2023-05-07T08:03:21;2.37;;;2.00;;
15155;SDS011;7678;50.058;8.306;2023-05-07T08:05:51;2.63;;;2.10;;
15155;SDS011;7678;50.058;8.306;2023-05-07T08:08:27;2.10;;;1.90;;
15155;SDS011;7678;50.058;8.306;2023-05-07T08:11:05;2.80;;;2.53;;
15155;SDS011;7678;50.058;8.306;2023-05-07T08:13:37;2.70;;;2.50;;
15155;SDS011;7678;50.058;8.306;2023-05-07T08:16:15;3.20;;;2.37;;
15155;SDS011;7678;50.058;8.306;2023-05-07T08:18:55;2.07;;;1.87;;
15155;SDS011;7678;50.058;8.306;2023-05-07T08:22:01;3.90;;;2.40;;
15155;SDS011;7678;50.058;8.306;2023-05-07T08:24:40;3.13;;;2.20;;
15155;SDS011;7678;50.058;8.306;2023-05-07T08:27:28;3.67;;;2.50;;
15155;SDS011;7678;50.058;8.306;2023-05-07T08:30:08;3.63;;;2.40;;
15155;SDS011;7678;50.058;8.306;2023-05-07T08:32:45;12.00;;;2.40;;
15155;SDS011;7678;50.058;8.306;2023-05-07T08:35:36;2.63;;;2.30;;
15155;SDS011;7678;50.058;8.306;2023-05-07T08:38:12;3.50;;;2.07;;
15155;SDS011;7678;50.058;8.306;2023-05-07T08:43:57;2.80;;;2.60;;
15155;SDS011;7678;50.058;8.306;2023-05-07T08:46:26;2.63;;;2.40;;
15155;SDS011;7678;50.058;8.306;2023-05-07T08:48:59;3.40;;;2.57;;
15155;SDS011;7678;50.058;8.306;2023-05-07T08:51:29;3.30;;;2.50;;
15155;SDS011;7678;50.058;8.306;2023-05-07T08:53:57;3.73;;;2.57;;
15155;SDS011;7678;50.058;8.306;2023-05-07T08:56:28;4.60;;;2.50;;
15155;SDS011;7678;50.058;8.306;2023-05-07T08:58:56;3.13;;;2.40;;
15155;SDS011;7678;50.058;8.306;2023-05-07T09:01:25;2.80;;;2.40;;
15155;SDS011;7678;50.058;8.306;2023-05-07T09:03:53;3.00;;;2.70;;
15155;SDS011;7678;50.058;8.306;2023-05-07T09:06:22;4.60;;;2.80;;
15155;SDS011;7678;50.058;8.306;2023-05-07T09:08:50;3.50;;;2.37;;
15155;SDS011;7678;50.058;8.306;2023-05-07T09:11:22;6.43;;;2.60;;
15155;SDS011;7678;50.058;8.306;2023-05-07T09:13:54;3.93;;;2.60;;
15155;SDS011;7678;50.058;8.306;2023-05-07T09:16:24;3.07;;;2.40;;
15155;SDS011;7678;50.058;8.306;2023-05-07T09:18:53;3.50;;;2.53;;
15155;SDS011;7678;50.058;8.306;2023-05-07T09:21:22;4.73;;;2.40;;
15155;SDS011;7678;50.058;8.306;2023-05-07T09:23:50;4.97;;;2.70;;
15155;SDS011;7678;50.058;8.306;2023-05-07T09:26:21;4.30;;;2.50;;
15155;SDS011;7678;50.058;8.306;2023-05-07T09:28:49;4.17;;;2.93;;
15155;SDS011;7678;50.058;8.306;2023-05-07T09:31:18;2.67;;;2.47;;
15155;SDS011;7678;50.058;8.306;2023-05-07T09:33:47;2.90;;;2.60;;
15155;SDS011;7678;50.058;8.306;2023-05-07T09:36:15;3.30;;;2.80;;
15155;SDS011;7678;50.058;8.306;2023-05-07T09:38:43;4.20;;;3.00;;
15155;SDS011;7678;50.058;8.306;2023-05-07T09:41:13;8.30;;;2.70;;
15155;SDS011;7678;50.058;8.306;2023-05-07T09:43:41;2.70;;;2.50;;
15155;SDS011;7678;50.058;8.306;2023-05-07T09:46:11;3.40;;;3.10;;
15155;SDS011;7678;50.058;8.306;2023-05-07T09:48:42;4.57;;;2.97;;
15155;SDS011;7678;50.058;8.306;2023-05-07T09:51:18;4.10;;;2.60;;
15155;SDS011;7678;50.058;8.306;2023-05-07T09:53:53;2.40;;;2.20;;
15155;SDS011;7678;50.058;8.306;2023-05-07T09:56:23;3.47;;;2.70;;
15155;SDS011;7678;50.058;8.306;2023-05-07T09:58:52;5.10;;;2.77;;
15155;SDS011;7678;50.058;8.306;2023-05-07T10:01:23;3.70;;;3.00;;
15155;SDS011;7678;50.058;8.306;2023-05-07T10:03:54;3.00;;;2.47;;
15155;SDS011;7678;50.058;8.306;2023-05-07T10:06:23;4.23;;;2.70;;
15155;SDS011;7678;50.058;8.306;2023-05-07T10:08:52;6.73;;;3.03;;
15155;SDS011;7678;50.058;8.306;2023-05-07T10:11:21;3.20;;;2.83;;
15155;SDS011;7678;50.058;8.306;2023-05-07T10:13:50;4.30;;;3.10;;
15155;SDS011;7678;50.058;8.306;2023-05-07T10:16:20;3.40;;;2.60;;
15155;SDS011;7678;50.058;8.306;2023-05-07T10:18:48;3.47;;;2.83;;
15155;SDS011;7678;50.058;8.306;2023-05-07T10:21:20;2.97;;;2.67;;
15155;SDS011;7678;50.058;8.306;2023-05-07T10:23:50;3.60;;;3.30;;
15155;SDS011;7678;50.058;8.306;2023-05-07T10:26:22;5.80;;;2.83;;
15155;SDS011;7678;50.058;8.306;2023-05-07T10:28:53;3.10;;;2.90;;
15155;SDS011;7678;50.058;8.306;2023-05-07T10:31:30;3.63;;;2.70;;
15155;SDS011;7678;50.058;8.306;2023-05-07T10:34:16;2.53;;;2.33;;
15155;SDS011;7678;50.058;8.306;2023-05-07T10:36:48;3.23;;;2.93;;
15155;SDS011;7678;50.058;8.306;2023-05-07T10:39:18;3.87;;;3.13;;
15155;SDS011;7678;50.058;8.306;2023-05-07T10:41:47;3.23;;;2.87;;
15155;SDS011;7678;50.058;8.306;2023-05-07T10:44:24;3.50;;;2.83;;
15155;SDS011;7678;50.058;8.306;2023-05-07T10:47:04;3.33;;;3.00;;
15155;SDS011;7678;50.058;8.306;2023-05-07T10:49:35;3.70;;;2.90;;
15155;SDS011;7678;50.058;8.306;2023-05-07T10:52:15;3.07;;;2.70;;
15155;SDS011;7678;50.058;8.306;2023-05-07T10:54:44;6.00;;;3.07;;
15155;SDS011;7678;50.058;8.306;2023-05-07T11:00:01;5.53;;;2.80;;
15155;SDS011;7678;50.058;8.306;2023-05-07T11:05:33;2.53;;;2.33;;
15155;SDS011;7678;50.058;8.306;2023-05-07T11:08:05;4.80;;;2.77;;
15155;SDS011;7678;50.058;8.306;2023-05-07T11:10:51;5.70;;;3.03;;
15155;SDS011;7678;50.058;8.306;2023-05-07T11:16:16;4.60;;;3.20;;
15155;SDS011;7678;50.058;8.306;2023-05-07T11:18:46;4.70;;;3.20;;
15155;SDS011;7678;50.058;8.306;2023-05-07T11:24:01;3.90;;;3.50;;
15155;SDS011;7678;50.058;8.306;2023-05-07T11:26:40;5.20;;;2.97;;
15155;SDS011;7678;50.058;8.306;2023-05-07T11:29:11;4.73;;;3.23;;
15155;SDS011;7678;50.058;8.306;2023-05-07T11:31:40;3.83;;;2.80;;
15155;SDS011;7678;50.058;8.306;2023-05-07T11:34:09;4.00;;;2.67;;
15155;SDS011;7678;50.058;8.306;2023-05-07T11:36:41;3.23;;;2.80;;
15155;SDS011;7678;50.058;8.306;2023-05-07T11:39:25;3.33;;;2.63;;
15155;SDS011;7678;50.058;8.306;2023-05-07T11:41:57;3.73;;;3.00;;
15155;SDS011;7678;50.058;8.306;2023-05-07T11:44:39;4.93;;;3.30;;
15155;SDS011;7678;50.058;8.306;2023-05-07T11:47:08;6.17;;;3.03;;
15155;SDS011;7678;50.058;8.306;2023-05-07T11:49:37;4.13;;;3.40;;
15155;SDS011;7678;50.058;8.306;2023-05-07T11:52:07;3.40;;;3.10;;
15155;SDS011;7678;50.058;8.306;2023-05-07T11:54:37;4.20;;;3.10;;
15155;SDS011;7678;50.058;8.306;2023-05-07T11:57:05;3.53;;;2.97;;
15155;SDS011;7678;50.058;8.306;2023-05-07T11:59:38;3.57;;;3.10;;
15155;SDS011;7678;50.058;8.306;2023-05-07T12:02:07;4.47;;;3.17;;
15155;SDS011;7678;50.058;8.306;2023-05-07T12:04:37;3.30;;;2.90;;
15155;SDS011;7678;50.058;8.306;2023-05-07T12:07:05;3.10;;;2.70;;
15155;SDS011;7678;50.058;8.306;2023-05-07T12:09:39;3.33;;;2.70;;
15155;SDS011;7678;50.058;8.306;2023-05-07T12:12:07;3.43;;;2.80;;
15155;SDS011;7678;50.058;8.306;2023-05-07T12:14:37;3.17;;;2.60;;
15155;SDS011;7678;50.058;8.306;2023-05-07T12:17:06;2.83;;;2.57;;
15155;SDS011;7678;50.058;8.306;2023-05-07T12:19:35;3.80;;;2.50;;
15155;SDS011;7678;50.058;8.306;2023-05-07T12:22:04;3.87;;;2.70;;
15155;SDS011;7678;50.058;8.306;2023-05-07T12:24:45;3.03;;;2.83;;
15155;SDS011;7678;50.058;8.306;2023-05-07T12:27:14;4.03;;;2.77;;
15155;SDS011;7678;50.058;8.306;2023-05-07T12:29:44;2.67;;;2.27;;
15155;SDS011;7678;50.058;8.306;2023-05-07T12:32:13;7.50;;;2.97;;
15155;SDS011;7678;50.058;8.306;2023-05-07T12:34:42;3.83;;;2.67;;
15155;SDS011;7678;50.058;8.306;2023-05-07T12:37:11;5.33;;;2.43;;
15155;SDS011;7678;50.058;8.306;2023-05-07T12:39:46;5.43;;;2.60;;
15155;SDS011;7678;50.058;8.306;2023-05-07T12:42:15;4.60;;;2.97;;
15155;SDS011;7678;50.058;8.306;2023-05-07T12:44:49;3.00;;;2.70;;
15155;SDS011;7678;50.058;8.306;2023-05-07T12:47:18;2.40;;;2.20;;
15155;SDS011;7678;50.058;8.306;2023-05-07T12:49:47;7.03;;;2.70;;
15155;SDS011;7678;50.058;8.306;2023-05-07T12:52:16;2.47;;;2.10;;
15155;SDS011;7678;50.058;8.306;2023-05-07T12:54:45;3.67;;;2.30;;
15155;SDS011;7678;50.058;8.306;2023-05-07T12:57:15;6.30;;;2.77;;
15155;SDS011;7678;50.058;8.306;2023-05-07T12:59:47;2.83;;;2.47;;
15155;SDS011;7678;50.058;8.306;2023-05-07T13:02:15;5.67;;;2.50;;
15155;SDS011;7678;50.058;8.306;2023-05-07T13:04:43;3.00;;;2.17;;
15155;SDS011;7678;50.058;8.306;2023-05-07T13:07:11;3.27;;;2.27;;
15155;SDS011;7678;50.058;8.306;2023-05-07T13:09:39;3.60;;;1.80;;
15155;SDS011;7678;50.058;8.306;2023-05-07T13:12:09;3.10;;;2.30;;
15155;SDS011;7678;50.058;8.306;2023-05-07T13:14:39;3.47;;;2.50;;
15155;SDS011;7678;50.058;8.306;2023-05-07T13:17:07;3.07;;;2.23;;
15155;SDS011;7678;50.058;8.306;2023-05-07T13:19:35;3.00;;;1.60;;
15155;SDS011;7678;50.058;8.306;2023-05-07T13:22:03;3.50;;;1.73;;
15155;SDS011;7678;50.058;8.306;2023-05-07T13:24:33;2.40;;;1.90;;
15155;SDS011;7678;50.058;8.306;2023-05-07T13:27:00;2.33;;;1.77;;
15155;SDS011;7678;50.058;8.306;2023-05-07T13:29:30;2.90;;;1.80;;
15155;SDS011;7678;50.058;8.306;2023-05-07T13:31:58;2.20;;;1.63;;
15155;SDS011;7678;50.058;8.306;2023-05-07T13:34:27;2.83;;;1.70;;
15155;SDS011;7678;50.058;8.306;2023-05-07T13:36:56;2.22;;;1.90;;
15155;SDS011;7678;50.058;8.306;2023-05-07T13:39:24;3.22;;;2.03;;
15155;SDS011;7678;50.058;8.306;2023-05-07T13:41:52;2.22;;;1.80;;
15155;SDS011;7678;50.058;8.306;2023-05-07T13:44:20;3.80;;;2.00;;
15155;SDS011;7678;50.058;8.306;2023-05-07T13:46:50;1.97;;;1.77;;
15155;SDS011;7678;50.058;8.306;2023-05-07T13:49:19;2.87;;;1.90;;
15155;SDS011;7678;50.058;8.306;2023-05-07T13:51:47;3.65;;;1.80;;
15155;SDS011;7678;50.058;8.306;2023-05-07T13:54:15;2.28;;;1.73;;
15155;SDS011;7678;50.058;8.306;2023-05-07T13:56:43;2.28;;;1.73;;
15155;SDS011;7678;50.058;8.306;2023-05-07T13:59:11;1.92;;;1.80;;
15155;SDS011;7678;50.058;8.306;2023-05-07T14:01:40;2.85;;;1.65;;
15155;SDS011;7678;50.058;8.306;2023-05-07T14:04:10;4.47;;;2.03;;
15155;SDS011;7678;50.058;8.306;2023-05-07T14:06:38;2.40;;;1.90;;
15155;SDS011;7678;50.058;8.306;2023-05-07T14:09:07;4.07;;;2.00;;
15155;SDS011;7678;50.058;8.306;2023-05-07T14:11:35;2.00;;;1.80;;
15155;SDS011;7678;50.058;8.306;2023-05-07T14:14:03;3.83;;;2.50;;
15155;SDS011;7678;50.058;8.306;2023-05-07T14:16:31;2.90;;;1.87;;
15155;SDS011;7678;50.058;8.306;2023-05-07T14:18:59;2.63;;;1.80;;
15155;SDS011;7678;50.058;8.306;2023-05-07T14:21:28;2.67;;;2.00;;
15155;SDS011;7678;50.058;8.306;2023-05-07T14:23:56;2.00;;;1.80;;
15155;SDS011;7678;50.058;8.306;2023-05-07T14:26:26;2.30;;;2.10;;
15155;SDS011;7678;50.058;8.306;2023-05-07T14:28:54;3.67;;;1.93;;
15155;SDS011;7678;50.058;8.306;2023-05-07T14:31:24;2.07;;;1.90;;
15155;SDS011;7678;50.058;8.306;2023-05-07T14:33:53;2.33;;;2.10;;
15155;SDS011;7678;50.058;8.306;2023-05-07T14:36:21;2.23;;;1.80;;
15155;SDS011;7678;50.058;8.306;2023-05-07T14:38:53;2.90;;;2.10;;
15155;SDS011;7678;50.058;8.306;2023-05-07T14:41:21;3.10;;;2.00;;
15155;SDS011;7678;50.058;8.306;2023-05-07T14:43:50;8.87;;;1.90;;
15155;SDS011;7678;50.058;8.306;2023-05-07T14:46:17;4.10;;;2.80;;
15155;SDS011;7678;50.058;8.306;2023-05-07T14:48:46;5.67;;;2.40;;
15155;SDS011;7678;50.058;8.306;2023-05-07T14:51:14;3.27;;;2.23;;
15155;SDS011;7678;50.058;8.306;2023-05-07T14:53:42;4.40;;;1.97;;
15155;SDS011;7678;50.058;8.306;2023-05-07T14:56:11;1.70;;;1.60;;
15155;SDS011;7678;50.058;8.306;2023-05-07T14:58:40;1.90;;;1.80;;
15155;SDS011;7678;50.058;8.306;2023-05-07T15:01:08;4.10;;;1.90;;
15155;SDS011;7678;50.058;8.306;2023-05-07T15:03:36;3.73;;;2.07;;
15155;SDS011;7678;50.058;8.306;2023-05-07T15:06:04;2.80;;;2.00;;
15155;SDS011;7678;50.058;8.306;2023-05-07T15:08:33;2.20;;;2.00;;
15155;SDS011;7678;50.058;8.306;2023-05-07T15:11:01;3.93;;;2.10;;
15155;SDS011;7678;50.058;8.306;2023-05-07T15:13:30;3.43;;;2.10;;
15155;SDS011;7678;50.058;8.306;2023-05-07T15:15:58;3.40;;;2.30;;
15155;SDS011;7678;50.058;8.306;2023-05-07T15:18:26;4.07;;;1.97;;
15155;SDS011;7678;50.058;8.306;2023-05-07T15:20:55;5.73;;;2.20;;
15155;SDS011;7678;50.058;8.306;2023-05-07T15:23:24;2.90;;;2.40;;
15155;SDS011;7678;50.058;8.306;2023-05-07T15:25:52;3.03;;;1.90;;
15155;SDS011;7678;50.058;8.306;2023-05-07T15:28:20;3.50;;;1.83;;
15155;SDS011;7678;50.058;8.306;2023-05-07T15:30:49;2.33;;;2.10;;